Date,TemperatureHighF,TemperatureAvgF,TemperatureLowF,DewpointHighF,DewpointAvgF,DewpointLowF,HumidityHigh,HumidityAvg,HumidityLow,PressureMaxIn,PressureMinIn,WindSpeedMaxMPH,WindSpeedAvgMPH,GustSpeedMaxMPH,PrecipitationSumIn
2013-11-1,65.7,62.1,56.8,63.0,59.7,55.0,97,92,82,29.88,29.59,12,3,21,0.14
2013-11-2,72.0,56.6,48.4,56.0,47.8,43.0,94,75,36,29.79,29.66,6,0,9,0.00
2013-11-3,51.1,44.6,32.1,45.0,35.1,21.0,90,70,50,30.46,29.79,6,1,10,0.00
2013-11-4,52.4,36.0,28.5,25.0,20.6,17.0,83,56,29,30.73,30.46,5,0,8,0.00
2013-11-5,56.2,40.5,28.6,39.0,33.5,24.0,91,77,51,30.74,30.56,6,0,9,0.00
2013-11-6,64.7,50.3,37.7,53.0,45.2,36.0,98,84,55,30.56,30.13,8,1,13,0.00
2013-11-7,62.7,53.3,38.3,60.0,51.7,35.0,98,94,86,30.12,29.76,10,2,14,0.19
2013-11-8,52.3,40.6,33.3,38.0,31.3,25.0,96,71,47,30.19,29.91,8,2,21,0.00
2013-11-9,48.5,39.2,28.2,37.0,29.7,26.0,91,70,45,30.30,30.08,7,1,13,0.00
2013-11-10,61.9,47.9,41.0,44.0,39.1,35.0,87,72,44,30.08,29.80,11,2,19,0.00
2013-11-11,57.4,46.7,38.1,38.0,32.9,29.0,72,60,39,30.20,29.99,10,3,18,0.00
2013-11-12,50.5,36.3,27.0,39.0,28.5,18.0,93,74,59,30.25,29.94,7,2,14,0.02
2013-11-13,43.9,30.5,22.4,23.0,17.1,13.0,80,60,33,30.36,30.24,7,1,11,0.00
2013-11-14,55.1,41.6,29.7,29.0,23.0,17.0,65,49,30,30.27,30.14,7,3,13,0.00
2013-11-15,61.8,45.6,37.1,40.0,33.3,25.0,96,66,26,30.28,30.21,6,1,10,0.00
2013-11-16,66.0,48.1,38.8,43.0,38.4,31.0,97,72,33,30.37,30.27,5,1,10,0.00
2013-11-17,58.9,52.3,39.6,59.0,51.4,39.0,99,97,88,30.34,29.89,4,0,8,0.07
2013-11-18,67.5,57.9,46.1,61.0,48.5,33.0,99,74,48,29.89,29.62,15,2,19,0.11
2013-11-19,51.2,41.4,30.5,35.0,26.7,21.0,73,57,39,30.33,29.74,8,2,16,0.02
2013-11-20,48.2,33.6,25.9,24.0,18.8,16.0,71,57,29,30.66,30.34,5,1,9,0.21
2013-11-21,50.9,36.8,24.6,38.0,26.4,15.0,87,68,37,30.68,30.45,4,0,8,0.00
2013-11-22,51.5,47.2,41.7,51.0,45.7,38.0,98,94,86,30.44,29.90,4,0,9,0.08
2013-11-23,50.2,42.2,29.3,48.0,29.4,18.0,97,63,35,30.00,29.88,12,3,17,0.00
2013-11-24,30.7,25.0,20.9,18.0,6.9,2.0,64,47,33,30.31,29.91,13,5,26,0.00
2013-11-25,38.4,27.1,17.6,23.0,12.0,5.0,71,54,35,30.46,30.31,11,2,16,0.00
2013-11-26,44.4,37.8,34.2,44.0,27.9,20.0,98,70,44,30.38,30.00,5,1,15,0.03
2013-11-27,61.4,50.3,36.1,61.0,49.4,32.0,98,96,84,29.99,29.29,13,3,27,0.47
2013-11-28,38.6,30.9,22.5,32.0,19.8,13.0,84,65,40,30.51,29.63,12,3,20,0.47
2013-11-29,40.6,29.0,23.1,24.0,18.3,15.0,78,65,48,30.77,30.51,4,0,8,0.32
2013-11-30,36.0,26.2,16.3,27.0,18.0,10.0,86,72,47,30.82,30.46,3,0,7,0.09